CYBX

Lourdes de Blanc Sablon Airport

Lourdes-De-Blanc-Sablon, Quebec, Canada
METAR CYBX 182000Z VRB02KT 15SM FEW150 FEW250 M22/M27 A3023 RMK AC1CI1 SLP244
Observed Flight Rules
Jan-18 @ 20:00 UTC (60 minutes ago) Visual Flight Rules
Wind Visibility Clouds
Variable at 2 knots 15 miles
  • Few at 15,000' AGL
  • Few at 25,000' AGL
Temperatures Readings
Current -22°C / -8°F
Dewpoint -27°C / -17°F
Humidity 64%
Altimeter 30.23" Hg
Pressure 1024.4 hPa
Elevation 35
METAR CYBX 182000Z VRB02KT 15SM FEW150 FEW250 M22/M27 A3023 RMK AC1CI1 SLP244
Observed Flight Rules
Jan-18 @ 20:00 UTC
(60 minutes ago)
VFR
Wind Visibility
Variable at 2 knots 15 miles
Clouds
  • Few at 15,000' AGL
  • Few at 25,000' AGL
Temperature Dewpoint
-22°C / -8°F -27°C / -17°F
Humidity Altimeter Pressure
64% 30.23" Hg 1024.4 hPa